• Join FlightAware (Why Join?)
  • Login
  • US Flag 
05:48AM EDT


 

Airport Tracker/Info


-or-


 

Live Flight TrackerFlight Track Log ✈ AAL1459 ✈ 19-Apr-2013 ✈ KBOS - KORD

Flight Track Log - Related Links

Times and Time Zones

All times are in EDT time to prevent confusion due to time zone crossing. See the AAL1459 flight status page for this flight to view local times or setup timezone preferences in your user account.

Time Position Orientation Groundspeed Altitude Reporting Facility
EDT Latitude Longitude Course Direction KTS MPH feet Rate Location/Type
02:18PM 42.3320 -71.0110 157° South 172 198 1,900  Level FlightAware
02:18PM 42.3250 -71.0030 140° Southeast 192 221 2,100 660 Climbing FlightAware
02:18PM 42.3130 -70.9780 123° Southeast 213 245 2,300 240 Climbing FlightAware
02:19PM 42.3010 -70.9540 124° Southeast 213 245 2,300 1,920 Level FlightAware
02:19PM 42.3170 -70.8960 70° East 300 345 3,900 3,120 Climbing FlightAware
02:20PM 42.3270 -70.8430 76° East 299 344 5,200 2,940 Climbing FlightAware
02:20PM 42.3370 -70.7850 77° East 317 365 6,600 2,820 Climbing FlightAware
02:20PM 42.3460 -70.7640 60° Northeast 330 380 7,100 2,160 Climbing FlightAware
02:21PM 42.3680 -70.7420 36° Northeast 330 380 7,700 2,580 Climbing FlightAware
02:21PM 42.3900 -70.7330 17° North 334 384 8,400 2,700 Climbing FlightAware
02:21PM 42.4280 -70.7200 14° North 331 381 9,500 2,580 Climbing FlightAware
02:22PM 42.4730 -70.7250 355° North 315 362 10,800 2,460 Climbing FlightAware
02:23PM 42.5250 -70.7630 332° Northwest 318 366 12,400 2,220 Climbing FlightAware
02:23PM 42.5680 -70.8340 309° West 328 377 14,000 1,440 Climbing FlightAware
02:24PM 42.6020 -70.9050 303° West 341 392 14,500 1,320 Climbing FlightAware
02:25PM 42.6350 -70.9750 303° West 351 404 15,800 2,040 Climbing FlightAware
02:25PM 42.6780 -71.0620 304° West 361 415 17,400 1,860 Climbing FlightAware
02:26PM 42.7150 -71.1390 303° West 369 425 18,500 1,080 Climbing FlightAware
02:27PM 42.7590 -71.2300 303° West 372 428 19,000 960 Climbing FlightAware
02:27PM 42.7820 -71.3020 294° West 360 414 19,800 1,800 Climbing FlightAware
02:28PM 42.7930 -71.4030 278° West 368 423 21,400 1,860 Climbing FlightAware
02:29PM 42.8040 -71.5090 278° West 374 430 22,600 1,680 Climbing FlightAware
02:30PM 42.8130 -71.6030 277° West 381 438 23,800 1,860 Climbing FlightAware
02:30PM 42.8230 -71.7100 277° West 386 444 25,300 1,440 Climbing FlightAware
02:31PM 42.8320 -71.8090 277° West 402 463 25,900 480 Climbing FlightAware
02:32PM 42.8470 -71.9080 282° West 409 471 26,000 60 Climbing FlightAware
02:32PM 42.8980 -72.0050 306° West 423 487 26,000  Level FlightAware
02:33PM 42.9490 -72.0850 311° West 416 479 26,000  Level FlightAware
02:34PM 43.0050 -72.1730 311° West 414 476 26,000  Level FlightAware
02:34PM 43.0380 -72.2510 300° West 395 455 26,000  Level FlightAware
02:35PM 43.0650 -72.3540 290° West 396 456 26,000  Level FlightAware
02:36PM 43.0920 -72.4570 290° West 396 456 26,000  Level FlightAware
02:37PM 43.1100 -72.5620 283° West 390 449 26,000  Level FlightAware
02:37PM 43.1130 -72.6790 272° West 389 448 26,000  Level FlightAware
02:38PM 43.1160 -72.7650 273° West 390 449 26,000  Level FlightAware
02:39PM 43.1180 -72.8490 272° West 392 451 26,000  Level FlightAware
02:40PM 43.1220 -73.0120 272° West 392 451 26,000  Level FlightAware
02:41PM 43.1250 -73.1280 272° West 391 450 26,000  Level FlightAware
02:41PM 43.1270 -73.2180 272° West 391 450 26,000  Level FlightAware
02:42PM 43.1310 -73.3360 273° West 387 445 26,000  Level FlightAware
02:43PM 43.1340 -73.4890 272° West 387 445 26,000  Level FlightAware
02:44PM 43.1350 -73.5810 271° West 387 445 26,000  Level FlightAware
02:44PM 43.1380 -73.6940 272° West 384 442 26,000  Level FlightAware
02:45PM 43.1400 -73.8050 271° West 383 441 26,000  Level FlightAware
02:46PM 43.1420 -73.9010 272° West 382 440 26,000  Level FlightAware
02:46PM 43.1440 -73.9980 272° West 379 436 26,000  Level FlightAware
02:47PM 43.1460 -74.1180 271° West 381 438 26,000  Level FlightAware
02:48PM 43.1470 -74.2300 271° West 381 438 26,000  Level FlightAware
02:49PM 43.1480 -74.3100 271° West 381 438 26,000  Level FlightAware
02:49PM 43.1500 -74.4130 272° West 381 438 26,000  Level FlightAware
02:50PM 43.1510 -74.4950 271° West 381 438 26,000  Level FlightAware
02:51PM 43.1520 -74.5770 271° West 381 438 26,000  Level FlightAware
02:51PM 43.1530 -74.6590 271° West 381 438 26,000  Level FlightAware
02:55PM 43.1580 -75.2090 271° West 388 447 26,000  Level FlightAware
02:55PM 43.1590 -75.3230 271° West 391 450 26,000  Level FlightAware
02:56PM 43.1590 -75.4240 270° West 389 448 26,000  Level FlightAware
02:57PM 43.1600 -75.5200 271° West 386 444 26,000  Level FlightAware
02:57PM 43.1600 -75.6140 270° West 387 445 26,000  Level FlightAware
02:58PM 43.1600 -75.7170 270° West 386 444 26,000  Level FlightAware
02:59PM 43.1610 -75.8220 271° West 384 442 26,000  Level FlightAware
03:00PM 43.1610 -75.9350 270° West 382 440 26,000  Level FlightAware
03:01PM 43.1610 -76.0660 270° West 381 438 26,000  Level FlightAware
03:01PM 43.1610 -76.1510 270° West 381 438 26,000  Level FlightAware
03:02PM 43.1600 -76.2960 270° West 382 440 26,000  Level FlightAware
03:03PM 43.1610 -76.3920 271° West 381 438 26,000  Level FlightAware
03:04PM 43.1610 -76.4890 270° West 378 435 26,000  Level FlightAware
03:04PM 43.1600 -76.5940 269° West 377 434 26,000  Level FlightAware
03:05PM 43.1600 -76.7140 270° West 378 435 26,000  Level FlightAware
03:06PM 43.1590 -76.8050 269° West 379 436 26,000  Level FlightAware
03:06PM 43.1590 -76.9150 270° West 378 435 26,000  Level FlightAware
03:07PM 43.1580 -77.0130 269° West 381 438 26,000  Level FlightAware
03:08PM 43.1580 -77.1100 270° West 382 440 26,000  Level FlightAware
03:09PM 43.1570 -77.2190 269° West 383 441 26,000  Level FlightAware
03:09PM 43.1560 -77.3150 269° West 382 440 26,000  Level FlightAware
03:10PM 43.1550 -77.4220 269° West 381 438 26,000  Level FlightAware
03:11PM 43.1540 -77.5210 269° West 381 438 26,000  Level FlightAware
03:11PM 43.1530 -77.6170 269° West 382 440 26,000  Level FlightAware
03:12PM 43.1520 -77.7260 269° West 383 441 26,000  Level FlightAware
03:13PM 43.1500 -77.8210 268° West 383 441 26,000  Level FlightAware
03:13PM 43.1490 -77.9300 269° West 383 441 26,000  Level FlightAware
03:14PM 43.1470 -78.0260 268° West 376 433 26,000  Level FlightAware
03:15PM 43.1460 -78.1220 269° West 375 432 26,000  Level FlightAware
03:16PM 43.1440 -78.2280 269° West 373 429 26,000  Level FlightAware
03:16PM 43.1430 -78.3210 269° West 367 422 26,000  Level FlightAware
03:17PM 43.1410 -78.4140 268° West 361 415 26,000  Level FlightAware
03:18PM 43.1380 -78.5120 268° West 342 394 26,000  Level FlightAware
03:18PM 43.1360 -78.5950 268° West 342 394 26,000  Level FlightAware
03:19PM 43.1330 -78.6930 268° West 341 392 26,000  Level FlightAware
03:20PM 43.1310 -78.7820 268° West 340 391 26,000  Level FlightAware
03:20PM 43.1280 -78.8780 268° West 339 390 26,000  Level FlightAware
03:21PM 43.1250 -78.9600 267° West 334 384 26,000  Level FlightAware
03:22PM 43.1230 -79.0430 268° West 329 379 26,000  Level FlightAware
03:22PM 43.1200 -79.1290 267° West 329 379 26,000  Level FlightAware
03:23PM 43.1170 -79.2230 268° West 328 377 26,000  Level FlightAware
03:24PM 43.1140 -79.3040 267° West 327 376 26,000  Level FlightAware
03:25PM 43.1110 -79.3930 267° West 327 376 26,000  Level FlightAware
03:25PM 43.1080 -79.4800 267° West 326 375 26,000  Level FlightAware
03:26PM 43.1050 -79.5720 267° West 325 374 26,000  Level FlightAware
03:27PM 43.1020 -79.6550 267° West 324 373 26,000  Level FlightAware
03:27PM 43.0990 -79.7460 267° West 323 372 26,000  Level FlightAware
03:28PM 43.0960 -79.8270 267° West 322 371 26,000  Level FlightAware
03:29PM 43.0930 -79.9060 267° West 326 375 26,000  Level FlightAware
03:30PM 43.0890 -80.0030 267° West 330 380 26,000  Level FlightAware
03:30PM 43.0860 -80.0850 267° West 331 381 26,000  Level FlightAware
03:31PM 43.0820 -80.1700 266° West 333 383 26,000  Level FlightAware
03:32PM 43.0780 -80.2640 267° West 334 384 26,000  Level FlightAware
03:32PM 43.0750 -80.3490 267° West 334 384 26,000  Level FlightAware
03:33PM 43.0710 -80.4430 267° West 335 386 26,000  Level FlightAware
03:34PM 43.0670 -80.5280 266° West 334 384 26,000  Level FlightAware
03:34PM 43.0630 -80.6130 266° West 331 381 26,000  Level FlightAware
03:35PM 43.0600 -80.6950 267° West 328 377 26,000  Level FlightAware
03:36PM 43.0550 -80.7870 266° West 326 375 26,000  Level FlightAware
03:37PM 43.0510 -80.8790 267° West 327 376 26,000  Level FlightAware
03:37PM 43.0470 -80.9620 266° West 327 376 26,000  Level FlightAware
03:38PM 43.0430 -81.0440 266° West 327 376 26,000  Level FlightAware
03:39PM 43.0390 -81.1380 267° West 325 374 26,000  Level FlightAware
03:39PM 43.0370 -81.2180 268° West 329 379 26,000  Level FlightAware
03:40PM 43.0350 -81.3140 268° West 326 375 26,000  Level FlightAware
03:41PM 43.0340 -81.3910 269° West 328 377 26,000  Level FlightAware
03:41PM 43.0320 -81.4710 268° West 330 380 26,000  Level FlightAware
03:42PM 43.0310 -81.5540 269° West 330 380 26,000  Level FlightAware
03:43PM 43.0290 -81.6460 268° West 331 381 26,000  Level FlightAware
03:44PM 43.0270 -81.7390 268° West 329 379 26,000  Level FlightAware
03:44PM 43.0260 -81.7990 269° West 328 377 26,000  Level FlightAware
03:45PM 43.0230 -81.9320 268° West 324 373 26,000  Level FlightAware
03:46PM 43.0210 -82.0160 268° West 326 375 26,000  Level FlightAware
03:47PM 43.0180 -82.1280 268° West 324 373 26,000  Level FlightAware
03:48PM 43.0150 -82.2490 268° West 323 372 26,000  Level FlightAware
03:48PM 43.0140 -82.3120 269° West 322 371 26,000  Level FlightAware
03:49PM 43.0120 -82.3970 268° West 319 367 26,000  Level FlightAware
03:50PM 43.0090 -82.4970 268° West 309 356 26,000  Level FlightAware
03:51PM 43.0060 -82.5870 267° West 309 356 26,000  Level FlightAware
03:51PM 43.0040 -82.6540 268° West 307 353 26,000  Level FlightAware
03:52PM 43.0010 -82.7470 268° West 308 354 26,000  Level FlightAware
03:53PM 42.9990 -82.8170 268° West 318 366 26,000  Level FlightAware
03:53PM 42.9960 -82.9120 268° West 326 375 26,000  Level FlightAware
03:54PM 42.9930 -83.0000 267° West 335 386 26,000  Level FlightAware
03:55PM 42.9900 -83.0980 268° West 347 399 26,000  Level FlightAware
03:55PM 42.9870 -83.1880 267° West 350 403 26,000  Level FlightAware
03:56PM 42.9840 -83.2650 267° West 350 403 26,000  Level FlightAware
03:57PM 42.9810 -83.3560 267° West 355 409 26,000  Level FlightAware
03:58PM 42.9770 -83.4700 267° West 360 414 26,000  Level FlightAware
03:58PM 42.9740 -83.5480 267° West 361 415 26,000  Level FlightAware
03:59PM 42.9690 -83.6810 267° West 361 415 26,000  Level FlightAware
04:00PM 42.9650 -83.7690 266° West 353 406 26,000  Level FlightAware
04:00PM 42.9550 -83.8670 262° West 353 406 26,000  Level FlightAware
04:01PM 42.9470 -83.9530 263° West 354 407 26,000  Level FlightAware
04:02PM 42.9380 -84.0460 263° West 355 409 26,000  Level FlightAware
04:02PM 42.9290 -84.1400 263° West 366 421 26,000  Level FlightAware
04:03PM 42.9190 -84.2420 262° West 370 426 26,000  Level FlightAware
04:04PM 42.9090 -84.3440 262° West 373 429 26,000  Level FlightAware
04:05PM 42.8990 -84.4350 261° West 375 432 26,000  Level FlightAware
04:05PM 42.8880 -84.5410 262° West 378 435 26,000  Level FlightAware
04:06PM 42.8780 -84.6370 262° West 380 437 26,000  Level FlightAware
04:07PM 42.8690 -84.7310 263° West 384 442 26,000  Level FlightAware
04:07PM 42.8570 -84.8420 262° West 388 447 26,000  Level FlightAware
04:08PM 42.8470 -84.9390 262° West 392 451 26,000  Level FlightAware
04:09PM 42.8350 -85.0510 262° West 395 455 26,000  Level FlightAware
04:09PM 42.8250 -85.1480 262° West 397 457 26,000  Level FlightAware
04:10PM 42.8150 -85.2430 262° West 398 458 26,000  Level FlightAware
04:11PM 42.8020 -85.3550 261° West 399 459 26,000  Level FlightAware
04:12PM 42.7910 -85.4580 262° West 400 460 26,000  Level FlightAware
04:12PM 42.7740 -85.5690 258° West 398 458 26,000  Level FlightAware
04:13PM 42.7570 -85.6620 256° West 398 458 26,000 -300 Level FlightAware
04:14PM 42.7390 -85.7640 257° West 398 458 25,600 -780 Descending FlightAware
04:14PM 42.7200 -85.8690 256° West 393 452 24,900 -1,020 Descending FlightAware
04:15PM 42.7030 -85.9640 256° West 389 448 24,200 -1,080 Descending FlightAware
04:16PM 42.6850 -86.0580 255° West 384 442 23,500 -1,560 Descending FlightAware
04:16PM 42.6660 -86.1600 256° West 368 423 22,000 -2,220 Descending FlightAware
04:17PM 42.6510 -86.2460 257° West 356 410 20,400 -2,100 Descending FlightAware
04:18PM 42.6320 -86.3460 256° West 352 405 19,100 -1,680 Descending FlightAware
04:19PM 42.6160 -86.4310 256° West 352 405 18,100 -1,440 Descending FlightAware
04:19PM 42.6000 -86.5150 256° West 343 395 17,200 -1,320 Descending FlightAware
04:20PM 42.5840 -86.6020 256° West 334 384 16,300 -1,380 Descending FlightAware
04:21PM 42.5670 -86.6900 255° West 326 375 15,300 -1,440 Descending FlightAware
04:21PM 42.5480 -86.7720 253° West 304 350 14,300 -1,320 Descending FlightAware
04:22PM 42.5290 -86.8420 250° West 300 345 13,500 -1,320 Descending FlightAware
04:23PM 42.5070 -86.9220 250° West 296 341 12,500 -1,320 Descending FlightAware
04:23PM 42.4880 -86.9910 250° West 289 333 11,700 -1,200 Descending FlightAware
04:24PM 42.4700 -87.0570 250° West 281 323 10,900 -1,020 Descending FlightAware
04:25PM 42.4510 -87.1260 250° West 255 293 10,300 -720 Descending FlightAware
04:26PM 42.4350 -87.1850 250° West 245 282 9,900 -600 Descending FlightAware
04:26PM 42.4240 -87.2270 250° West 245 282 9,600 -1,140 Descending FlightAware
04:26PM 42.4130 -87.2650 249° West 243 280 8,900 -1,680 Descending FlightAware
04:27PM 42.4010 -87.3090 250° West 245 282 8,100 -1,620 Descending FlightAware
04:27PM 42.3960 -87.3290 251° West 245 282 7,700 -1,200 Descending FlightAware
04:28PM 42.3850 -87.3640 247° West 238 274 7,300 -1,080 Descending FlightAware
04:28PM 42.3730 -87.3790 223° Southwest 250 288 7,000 -1,020 Descending FlightAware
04:28PM 42.3540 -87.3850 193° South 270 311 6,800 -960 Descending FlightAware
04:29PM 42.3160 -87.3760 170° South 275 316 6,300 -600 Descending FlightAware
04:29PM 42.2860 -87.3690 170° South 271 312 6,300  Level FlightAware
04:30PM 42.2510 -87.3590 168° South 270 311 6,300  Level FlightAware
04:30PM 42.2200 -87.3510 169° South 249 287 6,300 -120 Level FlightAware
04:30PM 42.1890 -87.3410 167° South 219 252 6,200 -600 Descending FlightAware
04:31PM 42.1650 -87.3330 166° South 206 237 5,800 -840 Descending FlightAware
04:31PM 42.1480 -87.3270 165° South 199 229 5,600 -540 Descending FlightAware
04:32PM 42.1250 -87.3190 166° South 193 222 5,400 -660 Descending FlightAware
04:32PM 42.1000 -87.3090 163° South 188 216 5,000 -780 Descending FlightAware
04:33PM 42.0790 -87.3020 166° South 185 213 4,700 -780 Descending FlightAware
04:33PM 42.0540 -87.2930 165° South 182 209 4,300 -720 Descending FlightAware
04:33PM 42.0430 -87.2900 169° South 168 193 4,200  Descending FlightAware
04:34PM 42.0310 -87.2980 206° Southwest 147 169 4,300 120 Climbing FlightAware
04:34PM 42.0230 -87.3120 232° Southwest 146 168 4,300  Level FlightAware
04:34PM 42.0120 -87.3330 235° Southwest 143 165 4,300  Level FlightAware
04:35PM 42.0080 -87.3550 256° West 140 161 4,300  Level FlightAware
04:35PM 42.0020 -87.3820 253° West 139 160 4,300  Level FlightAware
04:36PM 42.0010 -87.3950 264° West 140 161 4,300  Level FlightAware
04:36PM 42.0000 -87.4060 263° West 145 167 4,300  Level FlightAware
04:37PM 42.0020 -87.4460 274° West 152 175 4,300  Level FlightAware
04:37PM 42.0030 -87.4700 273° West 148 170 4,300  Level FlightAware
04:37PM 42.0030 -87.4830 270° West 149 171 4,300  Level FlightAware
04:38PM 42.0020 -87.5110 267° West 150 173 4,300  Level FlightAware
04:38PM 42.0020 -87.5340 270° West 145 167 4,300  Level FlightAware
04:39PM 42.0030 -87.5610 273° West 146 168 4,300  Level FlightAware
04:39PM 42.0030 -87.6010 270° West 144 166 4,300  Level FlightAware
04:40PM 42.0030 -87.6370 270° West 143 165 4,300  Level FlightAware
04:40PM 42.0030 -87.6590 270° West 150 173 4,300 -120 Level FlightAware
04:41PM 42.0030 -87.6840 270° West 155 178 4,200 -540 Descending FlightAware
04:41PM 42.0030 -87.7040 270° West 152 175 3,900 -840 Descending FlightAware
04:42PM 42.0030 -87.7280 270° West 154 177 3,600 -780 Descending FlightAware
04:42PM 42.0030 -87.7560 270° West 150 173 3,200 -840 Descending FlightAware
04:42PM 42.0030 -87.7730 270° West 134 154 2,900 -900 Descending FlightAware
04:43PM 42.0030 -87.7900 270° West 122 140 2,600 -780 Descending FlightAware
04:44PM 42.0030 -87.8240 270° West 119 137 2,100 -600 Descending FlightAware
04:44PM 42.0030 -87.8400 270° West 115 132 1,900 -660 Descending FlightAware
04:44PM 42.0030 -87.8600 270° West 117 135 1,500 -720 Descending FlightAware
04:45PM 42.0030 -87.8860 270° West 122 140 1,200 -720 Descending FlightAware
04:45PM 42.0030 -87.8990 270° West 126 145 900 -900 Descending FlightAware